sensor_id;sensor_type;location;lat;lon;timestamp;P1;durP1;ratioP1;P2;durP2;ratioP2
35891;SDS011;21993;42.672;23.296;2024-03-23T00:55:36;11.17;;;6.47;;
35891;SDS011;21993;42.672;23.296;2024-03-23T00:58:02;14.23;;;6.33;;
35891;SDS011;21993;42.672;23.296;2024-03-23T01:00:28;16.07;;;7.67;;
35891;SDS011;21993;42.672;23.296;2024-03-23T01:02:53;13.93;;;7.30;;
35891;SDS011;21993;42.672;23.296;2024-03-23T01:05:19;10.40;;;7.17;;
35891;SDS011;21993;42.672;23.296;2024-03-23T01:07:44;11.47;;;7.00;;
35891;SDS011;21993;42.672;23.296;2024-03-23T01:10:10;15.43;;;6.30;;
35891;SDS011;21993;42.672;23.296;2024-03-23T01:12:35;12.83;;;7.17;;
35891;SDS011;21993;42.672;23.296;2024-03-23T01:15:00;13.17;;;7.13;;
35891;SDS011;21993;42.672;23.296;2024-03-23T01:17:26;15.90;;;7.23;;
35891;SDS011;21993;42.672;23.296;2024-03-23T01:19:51;11.83;;;6.47;;
35891;SDS011;21993;42.672;23.296;2024-03-23T01:22:17;12.37;;;6.23;;
35891;SDS011;21993;42.672;23.296;2024-03-23T01:24:43;12.03;;;6.70;;
35891;SDS011;21993;42.672;23.296;2024-03-23T01:27:08;20.70;;;8.30;;
35891;SDS011;21993;42.672;23.296;2024-03-23T01:29:34;15.30;;;7.30;;
35891;SDS011;21993;42.672;23.296;2024-03-23T01:31:59;10.70;;;6.90;;
35891;SDS011;21993;42.672;23.296;2024-03-23T01:34:25;14.33;;;6.30;;
35891;SDS011;21993;42.672;23.296;2024-03-23T01:36:51;12.23;;;6.67;;
35891;SDS011;21993;42.672;23.296;2024-03-23T01:39:16;18.13;;;7.43;;
35891;SDS011;21993;42.672;23.296;2024-03-23T01:41:42;14.47;;;7.60;;
35891;SDS011;21993;42.672;23.296;2024-03-23T01:44:08;14.87;;;7.83;;
35891;SDS011;21993;42.672;23.296;2024-03-23T01:46:35;14.93;;;8.20;;
35891;SDS011;21993;42.672;23.296;2024-03-23T01:49:01;12.27;;;7.13;;
35891;SDS011;21993;42.672;23.296;2024-03-23T01:51:28;18.73;;;8.43;;
35891;SDS011;21993;42.672;23.296;2024-03-23T01:53:54;14.97;;;8.50;;
35891;SDS011;21993;42.672;23.296;2024-03-23T01:56:22;20.73;;;8.97;;
35891;SDS011;21993;42.672;23.296;2024-03-23T01:58:47;16.70;;;7.80;;
35891;SDS011;21993;42.672;23.296;2024-03-23T02:01:13;16.40;;;8.03;;
35891;SDS011;21993;42.672;23.296;2024-03-23T02:03:38;15.10;;;8.43;;
35891;SDS011;21993;42.672;23.296;2024-03-23T02:06:04;10.97;;;6.87;;
35891;SDS011;21993;42.672;23.296;2024-03-23T02:08:32;15.10;;;7.37;;
35891;SDS011;21993;42.672;23.296;2024-03-23T02:10:58;13.33;;;7.20;;
35891;SDS011;21993;42.672;23.296;2024-03-23T02:13:24;15.20;;;6.50;;
35891;SDS011;21993;42.672;23.296;2024-03-23T02:15:49;13.20;;;8.33;;
35891;SDS011;21993;42.672;23.296;2024-03-23T02:18:15;13.43;;;6.90;;
35891;SDS011;21993;42.672;23.296;2024-03-23T02:20:40;13.07;;;7.13;;
35891;SDS011;21993;42.672;23.296;2024-03-23T02:23:12;14.43;;;7.93;;
35891;SDS011;21993;42.672;23.296;2024-03-23T02:25:38;14.20;;;8.73;;
35891;SDS011;21993;42.672;23.296;2024-03-23T02:28:04;12.50;;;7.40;;
35891;SDS011;21993;42.672;23.296;2024-03-23T02:30:30;14.33;;;7.60;;
35891;SDS011;21993;42.672;23.296;2024-03-23T02:32:55;16.33;;;8.00;;
35891;SDS011;21993;42.672;23.296;2024-03-23T02:35:21;15.60;;;8.60;;
35891;SDS011;21993;42.672;23.296;2024-03-23T02:37:47;15.33;;;9.03;;
35891;SDS011;21993;42.672;23.296;2024-03-23T02:40:16;13.63;;;8.43;;
35891;SDS011;21993;42.672;23.296;2024-03-23T02:42:42;14.10;;;8.57;;
35891;SDS011;21993;42.672;23.296;2024-03-23T02:45:07;16.97;;;8.03;;
35891;SDS011;21993;42.672;23.296;2024-03-23T02:47:33;13.40;;;8.70;;
35891;SDS011;21993;42.672;23.296;2024-03-23T02:49:58;12.83;;;7.90;;
35891;SDS011;21993;42.672;23.296;2024-03-23T02:52:24;19.90;;;8.20;;
35891;SDS011;21993;42.672;23.296;2024-03-23T02:54:50;13.93;;;8.20;;
35891;SDS011;21993;42.672;23.296;2024-03-23T02:57:15;10.53;;;7.40;;
35891;SDS011;21993;42.672;23.296;2024-03-23T02:59:41;13.33;;;8.37;;
35891;SDS011;21993;42.672;23.296;2024-03-23T03:02:07;22.80;;;7.77;;
35891;SDS011;21993;42.672;23.296;2024-03-23T03:04:33;14.93;;;6.97;;
35891;SDS011;21993;42.672;23.296;2024-03-23T03:06:58;10.30;;;7.00;;
35891;SDS011;21993;42.672;23.296;2024-03-23T03:09:24;13.50;;;8.77;;
35891;SDS011;21993;42.672;23.296;2024-03-23T03:11:50;17.63;;;8.60;;
35891;SDS011;21993;42.672;23.296;2024-03-23T03:14:15;11.60;;;7.80;;
35891;SDS011;21993;42.672;23.296;2024-03-23T03:16:41;15.73;;;9.37;;
35891;SDS011;21993;42.672;23.296;2024-03-23T03:19:06;15.10;;;7.13;;
35891;SDS011;21993;42.672;23.296;2024-03-23T03:21:32;12.17;;;7.93;;
35891;SDS011;21993;42.672;23.296;2024-03-23T03:23:58;16.03;;;8.33;;
35891;SDS011;21993;42.672;23.296;2024-03-23T03:26:23;12.93;;;7.93;;
35891;SDS011;21993;42.672;23.296;2024-03-23T03:28:50;15.30;;;7.00;;
35891;SDS011;21993;42.672;23.296;2024-03-23T03:31:16;12.87;;;7.10;;
35891;SDS011;21993;42.672;23.296;2024-03-23T03:33:41;17.23;;;8.07;;
35891;SDS011;21993;42.672;23.296;2024-03-23T03:36:07;14.53;;;8.40;;
35891;SDS011;21993;42.672;23.296;2024-03-23T03:38:33;17.77;;;7.13;;
35891;SDS011;21993;42.672;23.296;2024-03-23T03:41:00;12.30;;;6.83;;
35891;SDS011;21993;42.672;23.296;2024-03-23T03:43:26;12.73;;;6.70;;
35891;SDS011;21993;42.672;23.296;2024-03-23T03:45:55;16.17;;;7.13;;
35891;SDS011;21993;42.672;23.296;2024-03-23T03:48:22;10.77;;;6.60;;
35891;SDS011;21993;42.672;23.296;2024-03-23T03:50:47;11.53;;;6.37;;
35891;SDS011;21993;42.672;23.296;2024-03-23T03:53:13;13.73;;;8.07;;
35891;SDS011;21993;42.672;23.296;2024-03-23T03:55:39;8.47;;;5.33;;
35891;SDS011;21993;42.672;23.296;2024-03-23T03:58:04;13.50;;;7.23;;
35891;SDS011;21993;42.672;23.296;2024-03-23T04:00:30;13.30;;;6.73;;
35891;SDS011;21993;42.672;23.296;2024-03-23T04:02:56;13.27;;;6.23;;
35891;SDS011;21993;42.672;23.296;2024-03-23T04:05:22;10.20;;;6.50;;
35891;SDS011;21993;42.672;23.296;2024-03-23T04:07:48;12.33;;;6.80;;
35891;SDS011;21993;42.672;23.296;2024-03-23T04:10:13;17.00;;;6.63;;
35891;SDS011;21993;42.672;23.296;2024-03-23T04:12:40;16.93;;;5.93;;
35891;SDS011;21993;42.672;23.296;2024-03-23T04:15:06;16.67;;;6.57;;
35891;SDS011;21993;42.672;23.296;2024-03-23T04:17:32;11.50;;;6.37;;
35891;SDS011;21993;42.672;23.296;2024-03-23T04:19:59;10.53;;;6.00;;
35891;SDS011;21993;42.672;23.296;2024-03-23T04:22:25;12.40;;;6.13;;
35891;SDS011;21993;42.672;23.296;2024-03-23T04:24:54;11.97;;;5.83;;
35891;SDS011;21993;42.672;23.296;2024-03-23T04:27:21;16.20;;;6.40;;
35891;SDS011;21993;42.672;23.296;2024-03-23T04:29:47;13.23;;;6.83;;
35891;SDS011;21993;42.672;23.296;2024-03-23T04:32:14;17.53;;;7.77;;
35891;SDS011;21993;42.672;23.296;2024-03-23T04:34:39;19.47;;;7.63;;
35891;SDS011;21993;42.672;23.296;2024-03-23T04:37:05;14.97;;;7.77;;
35891;SDS011;21993;42.672;23.296;2024-03-23T04:39:30;17.57;;;8.00;;
35891;SDS011;21993;42.672;23.296;2024-03-23T04:41:56;13.80;;;6.83;;
35891;SDS011;21993;42.672;23.296;2024-03-23T04:44:21;19.70;;;7.33;;
35891;SDS011;21993;42.672;23.296;2024-03-23T04:46:47;15.20;;;7.63;;
35891;SDS011;21993;42.672;23.296;2024-03-23T04:49:12;11.93;;;7.23;;
35891;SDS011;21993;42.672;23.296;2024-03-23T04:51:38;10.97;;;6.10;;
35891;SDS011;21993;42.672;23.296;2024-03-23T04:54:03;16.83;;;8.97;;
35891;SDS011;21993;42.672;23.296;2024-03-23T04:56:30;12.63;;;7.90;;
35891;SDS011;21993;42.672;23.296;2024-03-23T04:58:57;13.33;;;7.93;;
35891;SDS011;21993;42.672;23.296;2024-03-23T05:01:27;14.90;;;7.43;;
35891;SDS011;21993;42.672;23.296;2024-03-23T05:03:52;18.47;;;8.27;;
35891;SDS011;21993;42.672;23.296;2024-03-23T05:06:18;17.03;;;7.47;;
35891;SDS011;21993;42.672;23.296;2024-03-23T05:08:44;16.33;;;8.03;;
35891;SDS011;21993;42.672;23.296;2024-03-23T05:11:11;14.97;;;9.03;;
35891;SDS011;21993;42.672;23.296;2024-03-23T05:13:38;13.10;;;7.37;;
35891;SDS011;21993;42.672;23.296;2024-03-23T05:16:04;13.90;;;8.03;;
35891;SDS011;21993;42.672;23.296;2024-03-23T05:18:29;18.10;;;8.67;;
35891;SDS011;21993;42.672;23.296;2024-03-23T05:20:58;17.63;;;8.77;;
35891;SDS011;21993;42.672;23.296;2024-03-23T05:23:28;17.03;;;8.10;;
35891;SDS011;21993;42.672;23.296;2024-03-23T05:25:54;12.80;;;7.47;;
35891;SDS011;21993;42.672;23.296;2024-03-23T05:28:20;16.40;;;8.63;;
35891;SDS011;21993;42.672;23.296;2024-03-23T05:30:52;13.10;;;7.57;;
35891;SDS011;21993;42.672;23.296;2024-03-23T05:33:19;11.10;;;6.87;;
35891;SDS011;21993;42.672;23.296;2024-03-23T05:35:45;15.83;;;8.60;;
35891;SDS011;21993;42.672;23.296;2024-03-23T05:38:12;17.63;;;8.37;;
35891;SDS011;21993;42.672;23.296;2024-03-23T05:40:38;19.23;;;9.03;;
35891;SDS011;21993;42.672;23.296;2024-03-23T05:43:08;13.83;;;7.93;;
35891;SDS011;21993;42.672;23.296;2024-03-23T05:45:34;13.83;;;8.40;;
35891;SDS011;21993;42.672;23.296;2024-03-23T05:48:00;13.23;;;8.57;;
35891;SDS011;21993;42.672;23.296;2024-03-23T05:50:25;16.60;;;8.83;;
35891;SDS011;21993;42.672;23.296;2024-03-23T05:52:51;14.83;;;9.00;;
35891;SDS011;21993;42.672;23.296;2024-03-23T05:55:17;17.13;;;9.67;;
35891;SDS011;21993;42.672;23.296;2024-03-23T05:57:43;13.53;;;8.37;;
35891;SDS011;21993;42.672;23.296;2024-03-23T06:00:08;14.23;;;8.97;;
35891;SDS011;21993;42.672;23.296;2024-03-23T06:02:41;16.80;;;9.27;;
35891;SDS011;21993;42.672;23.296;2024-03-23T06:05:09;17.60;;;8.83;;
35891;SDS011;21993;42.672;23.296;2024-03-23T06:07:35;13.37;;;8.13;;
35891;SDS011;21993;42.672;23.296;2024-03-23T06:10:01;15.80;;;9.93;;
35891;SDS011;21993;42.672;23.296;2024-03-23T06:12:26;11.40;;;7.77;;
35891;SDS011;21993;42.672;23.296;2024-03-23T06:14:52;13.17;;;8.17;;
35891;SDS011;21993;42.672;23.296;2024-03-23T06:17:17;17.70;;;8.53;;
35891;SDS011;21993;42.672;23.296;2024-03-23T06:19:43;16.10;;;9.23;;
35891;SDS011;21993;42.672;23.296;2024-03-23T06:22:08;13.20;;;8.57;;
35891;SDS011;21993;42.672;23.296;2024-03-23T06:24:34;17.87;;;9.17;;
35891;SDS011;21993;42.672;23.296;2024-03-23T06:26:59;15.67;;;10.17;;
35891;SDS011;21993;42.672;23.296;2024-03-23T06:29:25;15.53;;;9.03;;
35891;SDS011;21993;42.672;23.296;2024-03-23T06:31:53;14.03;;;8.93;;
35891;SDS011;21993;42.672;23.296;2024-03-23T06:34:20;30.43;;;11.77;;
35891;SDS011;21993;42.672;23.296;2024-03-23T06:36:47;15.20;;;8.73;;
35891;SDS011;21993;42.672;23.296;2024-03-23T06:39:14;13.23;;;8.87;;
35891;SDS011;21993;42.672;23.296;2024-03-23T06:41:45;21.03;;;11.23;;
35891;SDS011;21993;42.672;23.296;2024-03-23T06:44:18;21.20;;;11.67;;
35891;SDS011;21993;42.672;23.296;2024-03-23T06:46:44;18.63;;;8.70;;
35891;SDS011;21993;42.672;23.296;2024-03-23T06:49:10;19.43;;;9.00;;
35891;SDS011;21993;42.672;23.296;2024-03-23T06:51:36;13.37;;;8.17;;
35891;SDS011;21993;42.672;23.296;2024-03-23T06:54:03;13.07;;;8.27;;
35891;SDS011;21993;42.672;23.296;2024-03-23T06:56:29;15.07;;;8.43;;
35891;SDS011;21993;42.672;23.296;2024-03-23T06:58:55;13.23;;;8.50;;
35891;SDS011;21993;42.672;23.296;2024-03-23T07:01:24;13.53;;;8.37;;
35891;SDS011;21993;42.672;23.296;2024-03-23T07:03:50;14.77;;;7.80;;
35891;SDS011;21993;42.672;23.296;2024-03-23T07:06:15;16.20;;;8.07;;
35891;SDS011;21993;42.672;23.296;2024-03-23T07:08:40;14.67;;;9.70;;
35891;SDS011;21993;42.672;23.296;2024-03-23T07:11:06;15.77;;;8.97;;
35891;SDS011;21993;42.672;23.296;2024-03-23T07:13:31;14.90;;;9.10;;
35891;SDS011;21993;42.672;23.296;2024-03-23T07:15:57;15.17;;;9.30;;
35891;SDS011;21993;42.672;23.296;2024-03-23T07:18:24;19.57;;;10.17;;
35891;SDS011;21993;42.672;23.296;2024-03-23T07:20:53;16.60;;;8.77;;
35891;SDS011;21993;42.672;23.296;2024-03-23T07:23:21;16.60;;;9.43;;
35891;SDS011;21993;42.672;23.296;2024-03-23T07:25:57;17.43;;;8.70;;
35891;SDS011;21993;42.672;23.296;2024-03-23T07:28:26;16.23;;;9.00;;
35891;SDS011;21993;42.672;23.296;2024-03-23T07:33:45;16.83;;;9.77;;
35891;SDS011;21993;42.672;23.296;2024-03-23T07:36:12;15.07;;;9.00;;
35891;SDS011;21993;42.672;23.296;2024-03-23T07:38:41;14.60;;;8.83;;
35891;SDS011;21993;42.672;23.296;2024-03-23T07:41:11;15.10;;;9.10;;
35891;SDS011;21993;42.672;23.296;2024-03-23T07:43:42;20.60;;;9.23;;
35891;SDS011;21993;42.672;23.296;2024-03-23T07:46:08;15.30;;;9.87;;
35891;SDS011;21993;42.672;23.296;2024-03-23T07:48:34;14.03;;;8.77;;
35891;SDS011;21993;42.672;23.296;2024-03-23T07:51:03;26.50;;;10.20;;
35891;SDS011;21993;42.672;23.296;2024-03-23T07:53:37;16.43;;;8.53;;
35891;SDS011;21993;42.672;23.296;2024-03-23T07:56:06;11.60;;;8.47;;
35891;SDS011;21993;42.672;23.296;2024-03-23T07:58:33;13.27;;;8.40;;
35891;SDS011;21993;42.672;23.296;2024-03-23T08:03:35;13.23;;;8.77;;
35891;SDS011;21993;42.672;23.296;2024-03-23T08:06:10;11.73;;;8.70;;
35891;SDS011;21993;42.672;23.296;2024-03-23T08:08:38;16.30;;;9.80;;
35891;SDS011;21993;42.672;23.296;2024-03-23T08:11:04;16.57;;;8.63;;
35891;SDS011;21993;42.672;23.296;2024-03-23T08:13:30;15.70;;;8.90;;
35891;SDS011;21993;42.672;23.296;2024-03-23T08:16:01;16.30;;;8.70;;
35891;SDS011;21993;42.672;23.296;2024-03-23T08:18:29;10.00;;;7.60;;
35891;SDS011;21993;42.672;23.296;2024-03-23T08:20:59;13.13;;;8.50;;
35891;SDS011;21993;42.672;23.296;2024-03-23T08:23:29;13.43;;;8.60;;
35891;SDS011;21993;42.672;23.296;2024-03-23T08:25:57;14.93;;;9.67;;
35891;SDS011;21993;42.672;23.296;2024-03-23T08:28:24;15.03;;;8.67;;
35891;SDS011;21993;42.672;23.296;2024-03-23T08:30:50;13.67;;;8.53;;
35891;SDS011;21993;42.672;23.296;2024-03-23T08:33:36;16.93;;;8.40;;
35891;SDS011;21993;42.672;23.296;2024-03-23T08:36:05;13.17;;;8.03;;
35891;SDS011;21993;42.672;23.296;2024-03-23T08:38:32;10.77;;;7.80;;
35891;SDS011;21993;42.672;23.296;2024-03-23T08:41:02;15.80;;;8.17;;
35891;SDS011;21993;42.672;23.296;2024-03-23T08:43:30;96.53;;;17.27;;
35891;SDS011;21993;42.672;23.296;2024-03-23T08:46:11;15.77;;;8.97;;
35891;SDS011;21993;42.672;23.296;2024-03-23T08:48:38;11.37;;;8.07;;
35891;SDS011;21993;42.672;23.296;2024-03-23T08:51:07;14.30;;;8.80;;
35891;SDS011;21993;42.672;23.296;2024-03-23T08:53:34;14.77;;;8.67;;
35891;SDS011;21993;42.672;23.296;2024-03-23T08:56:01;19.07;;;10.03;;
35891;SDS011;21993;42.672;23.296;2024-03-23T08:58:27;12.30;;;8.80;;
35891;SDS011;21993;42.672;23.296;2024-03-23T09:00:54;16.03;;;8.80;;
35891;SDS011;21993;42.672;23.296;2024-03-23T09:03:23;14.87;;;8.73;;
35891;SDS011;21993;42.672;23.296;2024-03-23T09:05:49;14.77;;;8.80;;
35891;SDS011;21993;42.672;23.296;2024-03-23T09:08:15;18.13;;;8.70;;
35891;SDS011;21993;42.672;23.296;2024-03-23T09:10:41;19.40;;;9.10;;
35891;SDS011;21993;42.672;23.296;2024-03-23T09:13:07;19.60;;;8.87;;
35891;SDS011;21993;42.672;23.296;2024-03-23T09:15:37;13.00;;;8.17;;
35891;SDS011;21993;42.672;23.296;2024-03-23T09:18:10;13.73;;;8.50;;
35891;SDS011;21993;42.672;23.296;2024-03-23T09:20:35;16.43;;;9.83;;
35891;SDS011;21993;42.672;23.296;2024-03-23T09:23:01;16.53;;;9.03;;
35891;SDS011;21993;42.672;23.296;2024-03-23T09:25:26;16.10;;;10.10;;
35891;SDS011;21993;42.672;23.296;2024-03-23T09:27:52;13.87;;;8.93;;
35891;SDS011;21993;42.672;23.296;2024-03-23T09:30:17;14.50;;;8.87;;
35891;SDS011;21993;42.672;23.296;2024-03-23T09:32:45;11.77;;;8.60;;
35891;SDS011;21993;42.672;23.296;2024-03-23T09:35:10;28.63;;;9.93;;
35891;SDS011;21993;42.672;23.296;2024-03-23T09:37:36;14.87;;;9.47;;
35891;SDS011;21993;42.672;23.296;2024-03-23T09:40:05;14.43;;;8.57;;
35891;SDS011;21993;42.672;23.296;2024-03-23T09:42:34;16.37;;;8.70;;
35891;SDS011;21993;42.672;23.296;2024-03-23T09:45:00;15.47;;;8.77;;
35891;SDS011;21993;42.672;23.296;2024-03-23T09:47:26;11.83;;;8.40;;
35891;SDS011;21993;42.672;23.296;2024-03-23T09:49:52;13.23;;;8.03;;
35891;SDS011;21993;42.672;23.296;2024-03-23T09:52:18;15.80;;;9.13;;
35891;SDS011;21993;42.672;23.296;2024-03-23T09:54:45;11.53;;;7.87;;
35891;SDS011;21993;42.672;23.296;2024-03-23T09:57:10;16.90;;;8.90;;
35891;SDS011;21993;42.672;23.296;2024-03-23T09:59:36;14.13;;;8.47;;
35891;SDS011;21993;42.672;23.296;2024-03-23T10:02:01;18.40;;;8.60;;
35891;SDS011;21993;42.672;23.296;2024-03-23T10:04:40;12.90;;;8.20;;
35891;SDS011;21993;42.672;23.296;2024-03-23T10:07:13;11.77;;;7.57;;
35891;SDS011;21993;42.672;23.296;2024-03-23T10:09:44;12.07;;;7.40;;
35891;SDS011;21993;42.672;23.296;2024-03-23T10:12:13;16.13;;;7.90;;
35891;SDS011;21993;42.672;23.296;2024-03-23T10:14:41;12.90;;;7.73;;
35891;SDS011;21993;42.672;23.296;2024-03-23T10:17:15;12.10;;;7.33;;
35891;SDS011;21993;42.672;23.296;2024-03-23T10:22:13;11.93;;;7.73;;
35891;SDS011;21993;42.672;23.296;2024-03-23T10:24:39;13.47;;;8.20;;
35891;SDS011;21993;42.672;23.296;2024-03-23T10:27:06;17.53;;;8.37;;
35891;SDS011;21993;42.672;23.296;2024-03-23T10:29:32;14.33;;;7.57;;
35891;SDS011;21993;42.672;23.296;2024-03-23T10:32:07;13.13;;;7.77;;
35891;SDS011;21993;42.672;23.296;2024-03-23T10:34:34;12.50;;;6.93;;
35891;SDS011;21993;42.672;23.296;2024-03-23T10:37:01;12.57;;;7.80;;
35891;SDS011;21993;42.672;23.296;2024-03-23T10:39:29;15.20;;;7.50;;
35891;SDS011;21993;42.672;23.296;2024-03-23T10:42:05;15.67;;;7.97;;
35891;SDS011;21993;42.672;23.296;2024-03-23T10:44:34;12.27;;;6.07;;
35891;SDS011;21993;42.672;23.296;2024-03-23T10:47:01;14.77;;;7.03;;
35891;SDS011;21993;42.672;23.296;2024-03-23T10:49:34;15.97;;;7.27;;
35891;SDS011;21993;42.672;23.296;2024-03-23T10:52:02;14.50;;;6.57;;
35891;SDS011;21993;42.672;23.296;2024-03-23T10:54:29;14.90;;;6.50;;
35891;SDS011;21993;42.672;23.296;2024-03-23T10:57:03;11.43;;;6.60;;
35891;SDS011;21993;42.672;23.296;2024-03-23T10:59:36;10.23;;;6.63;;
35891;SDS011;21993;42.672;23.296;2024-03-23T11:02:03;13.00;;;6.50;;
35891;SDS011;21993;42.672;23.296;2024-03-23T11:04:33;12.07;;;6.47;;
35891;SDS011;21993;42.672;23.296;2024-03-23T11:07:27;11.53;;;7.83;;
35891;SDS011;21993;42.672;23.296;2024-03-23T11:09:52;12.27;;;6.50;;
35891;SDS011;21993;42.672;23.296;2024-03-23T11:15:00;17.47;;;6.83;;
35891;SDS011;21993;42.672;23.296;2024-03-23T11:17:28;12.07;;;6.13;;
35891;SDS011;21993;42.672;23.296;2024-03-23T11:19:58;16.40;;;7.00;;
35891;SDS011;21993;42.672;23.296;2024-03-23T11:25:03;10.83;;;6.57;;
35891;SDS011;21993;42.672;23.296;2024-03-23T11:27:37;10.57;;;6.47;;
35891;SDS011;21993;42.672;23.296;2024-03-23T11:32:51;11.50;;;5.90;;
35891;SDS011;21993;42.672;23.296;2024-03-23T11:38:03;9.60;;;6.40;;
35891;SDS011;21993;42.672;23.296;2024-03-23T11:40:39;9.53;;;5.60;;
35891;SDS011;21993;42.672;23.296;2024-03-23T11:43:06;10.13;;;6.47;;
35891;SDS011;21993;42.672;23.296;2024-03-23T11:45:39;14.73;;;7.33;;
35891;SDS011;21993;42.672;23.296;2024-03-23T11:48:16;14.03;;;6.87;;
35891;SDS011;21993;42.672;23.296;2024-03-23T11:50:44;13.73;;;6.80;;
35891;SDS011;21993;42.672;23.296;2024-03-23T11:58:18;8.50;;;6.07;;
35891;SDS011;21993;42.672;23.296;2024-03-23T12:00:57;13.27;;;6.73;;
35891;SDS011;21993;42.672;23.296;2024-03-23T12:03:24;9.80;;;6.03;;
35891;SDS011;21993;42.672;23.296;2024-03-23T12:06:00;18.43;;;7.43;;
35891;SDS011;21993;42.672;23.296;2024-03-23T12:08:31;11.77;;;5.70;;
35891;SDS011;21993;42.672;23.296;2024-03-23T12:11:14;7.63;;;5.43;;
35891;SDS011;21993;42.672;23.296;2024-03-23T12:13:43;12.07;;;6.57;;
35891;SDS011;21993;42.672;23.296;2024-03-23T12:18:44;9.87;;;5.13;;
35891;SDS011;21993;42.672;23.296;2024-03-23T12:21:11;9.00;;;5.57;;
35891;SDS011;21993;42.672;23.296;2024-03-23T12:23:39;7.67;;;5.30;;
35891;SDS011;21993;42.672;23.296;2024-03-23T12:26:05;7.50;;;4.60;;
35891;SDS011;21993;42.672;23.296;2024-03-23T12:28:31;7.17;;;5.50;;
35891;SDS011;21993;42.672;23.296;2024-03-23T12:30:57;7.27;;;4.67;;
35891;SDS011;21993;42.672;23.296;2024-03-23T12:33:23;8.50;;;5.80;;
35891;SDS011;21993;42.672;23.296;2024-03-23T12:35:49;8.13;;;4.97;;
35891;SDS011;21993;42.672;23.296;2024-03-23T12:38:15;6.93;;;4.97;;
35891;SDS011;21993;42.672;23.296;2024-03-23T12:40:41;8.43;;;5.03;;
35891;SDS011;21993;42.672;23.296;2024-03-23T12:43:07;4.17;;;3.17;;
35891;SDS011;21993;42.672;23.296;2024-03-23T12:45:35;2.17;;;1.83;;
35891;SDS011;21993;42.672;23.296;2024-03-23T12:48:00;2.17;;;1.97;;
35891;SDS011;21993;42.672;23.296;2024-03-23T12:50:26;2.57;;;1.90;;
35891;SDS011;21993;42.672;23.296;2024-03-23T12:52:51;2.87;;;2.03;;
35891;SDS011;21993;42.672;23.296;2024-03-23T12:55:17;1.63;;;1.30;;
35891;SDS011;21993;42.672;23.296;2024-03-23T12:57:43;1.83;;;1.70;;
35891;SDS011;21993;42.672;23.296;2024-03-23T13:00:09;2.10;;;1.60;;
35891;SDS011;21993;42.672;23.296;2024-03-23T13:02:36;2.50;;;1.73;;
35891;SDS011;21993;42.672;23.296;2024-03-23T13:05:03;1.60;;;1.50;;
35891;SDS011;21993;42.672;23.296;2024-03-23T13:07:29;3.20;;;1.70;;
35891;SDS011;21993;42.672;23.296;2024-03-23T13:09:55;2.93;;;1.93;;
35891;SDS011;21993;42.672;23.296;2024-03-23T13:12:24;1.90;;;1.77;;
35891;SDS011;21993;42.672;23.296;2024-03-23T13:14:50;1.77;;;1.67;;
35891;SDS011;21993;42.672;23.296;2024-03-23T13:17:16;2.33;;;1.80;;
35891;SDS011;21993;42.672;23.296;2024-03-23T13:19:41;3.40;;;1.50;;
35891;SDS011;21993;42.672;23.296;2024-03-23T13:22:07;1.73;;;1.63;;
35891;SDS011;21993;42.672;23.296;2024-03-23T13:24:33;3.07;;;1.93;;
35891;SDS011;21993;42.672;23.296;2024-03-23T13:26:59;2.70;;;1.70;;
35891;SDS011;21993;42.672;23.296;2024-03-23T13:29:24;1.60;;;1.50;;
35891;SDS011;21993;42.672;23.296;2024-03-23T13:31:50;19.20;;;3.27;;
35891;SDS011;21993;42.672;23.296;2024-03-23T13:34:17;3.30;;;1.60;;
35891;SDS011;21993;42.672;23.296;2024-03-23T13:36:44;3.07;;;1.67;;
35891;SDS011;21993;42.672;23.296;2024-03-23T13:39:10;6.33;;;2.00;;
35891;SDS011;21993;42.672;23.296;2024-03-23T13:41:43;5.17;;;2.10;;
35891;SDS011;21993;42.672;23.296;2024-03-23T13:44:13;1.93;;;1.70;;
35891;SDS011;21993;42.672;23.296;2024-03-23T13:46:39;2.13;;;1.50;;
35891;SDS011;21993;42.672;23.296;2024-03-23T13:49:08;2.67;;;1.47;;
35891;SDS011;21993;42.672;23.296;2024-03-23T13:51:46;2.03;;;1.93;;
35891;SDS011;21993;42.672;23.296;2024-03-23T13:54:12;2.50;;;1.80;;
35891;SDS011;21993;42.672;23.296;2024-03-23T13:56:37;4.77;;;2.20;;
35891;SDS011;21993;42.672;23.296;2024-03-23T13:59:03;2.93;;;1.90;;
35891;SDS011;21993;42.672;23.296;2024-03-23T14:01:28;4.57;;;2.30;;
35891;SDS011;21993;42.672;23.296;2024-03-23T14:03:54;3.00;;;2.03;;
35891;SDS011;21993;42.672;23.296;2024-03-23T14:06:20;21.13;;;2.37;;
35891;SDS011;21993;42.672;23.296;2024-03-23T14:08:46;4.37;;;2.20;;
35891;SDS011;21993;42.672;23.296;2024-03-23T14:11:14;6.40;;;2.50;;
35891;SDS011;21993;42.672;23.296;2024-03-23T14:13:40;3.60;;;1.90;;
35891;SDS011;21993;42.672;23.296;2024-03-23T14:16:05;1.93;;;1.77;;
35891;SDS011;21993;42.672;23.296;2024-03-23T14:18:31;7.37;;;2.07;;
35891;SDS011;21993;42.672;23.296;2024-03-23T14:20:57;3.30;;;2.70;;
35891;SDS011;21993;42.672;23.296;2024-03-23T14:23:27;21.40;;;5.23;;
35891;SDS011;21993;42.672;23.296;2024-03-23T14:25:58;8.70;;;2.67;;
35891;SDS011;21993;42.672;23.296;2024-03-23T14:28:24;3.43;;;2.50;;
35891;SDS011;21993;42.672;23.296;2024-03-23T14:30:50;2.93;;;2.17;;
35891;SDS011;21993;42.672;23.296;2024-03-23T14:33:16;3.17;;;1.90;;
35891;SDS011;21993;42.672;23.296;2024-03-23T14:35:43;6.73;;;2.83;;
35891;SDS011;21993;42.672;23.296;2024-03-23T14:38:09;3.73;;;2.50;;
35891;SDS011;21993;42.672;23.296;2024-03-23T14:40:34;5.60;;;3.00;;
35891;SDS011;21993;42.672;23.296;2024-03-23T14:43:00;3.00;;;2.70;;
35891;SDS011;21993;42.672;23.296;2024-03-23T14:45:26;3.97;;;2.67;;
35891;SDS011;21993;42.672;23.296;2024-03-23T14:47:51;4.00;;;2.07;;
35891;SDS011;21993;42.672;23.296;2024-03-23T14:50:17;2.57;;;2.33;;
35891;SDS011;21993;42.672;23.296;2024-03-23T14:52:46;9.63;;;2.70;;
35891;SDS011;21993;42.672;23.296;2024-03-23T14:55:12;2.50;;;2.30;;
35891;SDS011;21993;42.672;23.296;2024-03-23T14:57:38;4.90;;;3.10;;
35891;SDS011;21993;42.672;23.296;2024-03-23T15:00:09;3.27;;;2.57;;
35891;SDS011;21993;42.672;23.296;2024-03-23T15:02:39;6.13;;;3.23;;
35891;SDS011;21993;42.672;23.296;2024-03-23T15:05:05;2.43;;;2.23;;
35891;SDS011;21993;42.672;23.296;2024-03-23T15:07:35;4.73;;;2.67;;
35891;SDS011;21993;42.672;23.296;2024-03-23T15:10:03;5.00;;;2.53;;
35891;SDS011;21993;42.672;23.296;2024-03-23T15:12:33;6.03;;;3.10;;
35891;SDS011;21993;42.672;23.296;2024-03-23T15:14:59;4.80;;;2.90;;
35891;SDS011;21993;42.672;23.296;2024-03-23T15:17:25;6.57;;;3.20;;
35891;SDS011;21993;42.672;23.296;2024-03-23T15:19:51;3.73;;;2.60;;
35891;SDS011;21993;42.672;23.296;2024-03-23T15:22:18;5.30;;;2.83;;
35891;SDS011;21993;42.672;23.296;2024-03-23T15:24:44;6.60;;;3.20;;
35891;SDS011;21993;42.672;23.296;2024-03-23T15:27:09;4.37;;;3.03;;
35891;SDS011;21993;42.672;23.296;2024-03-23T15:29:35;3.57;;;2.60;;
35891;SDS011;21993;42.672;23.296;2024-03-23T15:32:01;5.07;;;2.80;;
35891;SDS011;21993;42.672;23.296;2024-03-23T15:34:28;3.27;;;2.50;;
35891;SDS011;21993;42.672;23.296;2024-03-23T15:36:54;2.53;;;2.33;;
35891;SDS011;21993;42.672;23.296;2024-03-23T15:39:21;3.67;;;2.70;;
35891;SDS011;21993;42.672;23.296;2024-03-23T15:41:49;3.17;;;2.70;;
35891;SDS011;21993;42.672;23.296;2024-03-23T15:44:14;5.60;;;3.20;;